Time;durP1;ratioP1;P1;durP2;ratioP2;P2;SDS_P1;SDS_P2;PMS_P1;PMS_P2;Temp;Humidity;BMP_temperature;BMP_pressure;BME280_temperature;BME280_humidity;BME280_pressure;Samples;Min_cycle;Max_cycle;Signal;HPM_P1;HPM_P2
2022/02/02 00:04:24;;;;;;;8.45;3.47;;;;;;;;;;5032837;28;20052;-59
2022/02/02 00:09:22;;;;;;;5.65;3.80;;;;;;;;;;5033267;28;20028;-59
2022/02/02 00:22:04;;;;;;;7.82;4.85;;;;;;;;;;5030025;28;20108;-59
2022/02/02 00:25:11;;;;;;;10.05;4.75;;;;;;;;;;5032204;28;20452;-59
2022/02/02 00:27:24;;;;;;;8.65;4.70;;;;;;;;;;5032756;28;20045;-59
2022/02/02 00:29:55;;;;;;;9.98;5.00;;;;;;;;;;5032985;28;20034;-59
2022/02/02 00:32:36;;;;;;;10.63;4.78;;;;;;;;;;5031242;28;20039;-59
2022/02/02 00:35:03;;;;;;;10.40;5.43;;;;;;;;;;5030126;28;20028;-59
2022/02/02 00:37:28;;;;;;;9.55;5.05;;;;;;;;;;5029509;28;20029;-59
2022/02/02 00:39:54;;;;;;;7.88;4.57;;;;;;;;;;5029626;28;20569;-59
2022/02/02 00:42:19;;;;;;;8.55;4.70;;;;;;;;;;5029546;28;20056;-59
2022/02/02 00:44:49;;;;;;;7.07;4.68;;;;;;;;;;5032022;28;20048;-59
2022/02/02 00:47:21;;;;;;;9.20;5.18;;;;;;;;;;5025917;28;20166;-59
2022/02/02 00:49:48;;;;;;;9.15;5.30;;;;;;;;;;5030360;28;20041;-60
2022/02/02 00:52:14;;;;;;;9.93;5.53;;;;;;;;;;5029449;28;20030;-59
2022/02/02 00:54:39;;;;;;;10.60;5.50;;;;;;;;;;5027612;28;20030;-59
2022/02/02 00:57:05;;;;;;;12.45;5.72;;;;;;;;;;5034214;28;20033;-59
2022/02/02 00:59:30;;;;;;;9.88;5.13;;;;;;;;;;5029935;28;20098;-60
2022/02/02 01:01:55;;;;;;;9.57;4.63;;;;;;;;;;5028544;28;20119;-59
2022/02/02 01:04:21;;;;;;;12.35;4.82;;;;;;;;;;5027870;28;20030;-59
2022/02/02 01:07:04;;;;;;;11.10;4.85;;;;;;;;;;5031462;28;20504;-59
2022/02/02 01:09:42;;;;;;;12.73;5.28;;;;;;;;;;5030460;28;20029;-59
2022/02/02 01:28:38;;;;;;;11.55;5.03;;;;;;;;;;5031703;28;20032;-59
2022/02/02 01:31:05;;;;;;;7.72;4.32;;;;;;;;;;5024943;28;20060;-59
2022/02/02 01:33:30;;;;;;;11.20;5.32;;;;;;;;;;5033966;28;20044;-59
2022/02/02 01:35:57;;;;;;;7.53;4.35;;;;;;;;;;5030059;28;20024;-59
2022/02/02 01:38:26;;;;;;;14.05;5.82;;;;;;;;;;5028001;28;20030;-60
2022/02/02 01:41:03;;;;;;;10.43;4.03;;;;;;;;;;5025267;28;20496;-59
2022/02/02 01:43:36;;;;;;;10.15;4.30;;;;;;;;;;5036439;28;20105;-59
2022/02/02 01:46:09;;;;;;;8.30;3.45;;;;;;;;;;5025238;28;20028;-59
2022/02/02 01:49:05;;;;;;;8.15;3.67;;;;;;;;;;5026253;28;20480;-59
2022/02/02 01:56:19;;;;;;;7.77;4.33;;;;;;;;;;5031281;28;20025;-59
2022/02/02 02:01:11;;;;;;;9.13;4.82;;;;;;;;;;5034549;28;20056;-59
2022/02/02 02:03:38;;;;;;;9.68;4.40;;;;;;;;;;5034597;28;20075;-59
2022/02/02 02:06:04;;;;;;;10.05;4.55;;;;;;;;;;5035708;28;20035;-59
2022/02/02 02:08:30;;;;;;;8.68;4.68;;;;;;;;;;5035812;28;20036;-60
2022/02/02 02:10:57;;;;;;;11.40;5.45;;;;;;;;;;5032263;28;20021;-60
2022/02/02 02:15:57;;;;;;;14.40;5.90;;;;;;;;;;5027626;28;20026;-59
2022/02/02 02:18:22;;;;;;;14.40;6.00;;;;;;;;;;5033716;28;20108;-59
2022/02/02 02:20:48;;;;;;;11.15;5.03;;;;;;;;;;5038426;28;20475;-59
2022/02/02 02:23:13;;;;;;;15.05;5.35;;;;;;;;;;5029295;28;20455;-60
2022/02/02 02:25:42;;;;;;;12.75;5.20;;;;;;;;;;5037602;28;20037;-59
2022/02/02 02:30:56;;;;;;;15.07;5.63;;;;;;;;;;5032934;28;20059;-59
2022/02/02 02:57:44;;;;;;;13.35;6.07;;;;;;;;;;5030337;28;20111;-59
2022/02/02 03:30:06;;;;;;;14.85;5.70;;;;;;;;;;5034689;28;20027;-59
2022/02/02 03:49:17;;;;;;;12.93;5.95;;;;;;;;;;5033269;28;20048;-59
2022/02/02 03:52:04;;;;;;;14.88;5.22;;;;;;;;;;5026795;28;20037;-59
2022/02/02 04:00:18;;;;;;;15.50;5.03;;;;;;;;;;5031372;28;20032;-59
2022/02/02 04:02:35;;;;;;;15.20;4.43;;;;;;;;;;5031962;28;20037;-59
2022/02/02 04:07:48;;;;;;;12.93;4.53;;;;;;;;;;5030616;28;20075;-59
2022/02/02 04:10:15;;;;;;;12.32;4.28;;;;;;;;;;5030755;28;20121;-59
2022/02/02 04:13:08;;;;;;;14.23;4.78;;;;;;;;;;5029693;28;20022;-59
2022/02/02 05:06:47;;;;;;;11.95;3.53;;;;;;;;;;5030383;28;20454;-59
2022/02/02 05:52:11;;;;;;;10.90;4.88;;;;;;;;;;5037314;28;20028;-60
2022/02/02 05:54:37;;;;;;;21.60;4.57;;;;;;;;;;5039452;28;20029;-60
2022/02/02 05:57:03;;;;;;;13.13;4.45;;;;;;;;;;5035181;28;20111;-60
2022/02/02 05:59:32;;;;;;;12.48;3.72;;;;;;;;;;5034653;28;20090;-60
2022/02/02 06:01:58;;;;;;;14.88;3.78;;;;;;;;;;5032589;28;20039;-60
2022/02/02 06:04:29;;;;;;;13.13;3.22;;;;;;;;;;5035565;28;20076;-60
2022/02/02 06:07:00;;;;;;;14.73;3.47;;;;;;;;;;5033080;28;20029;-60
2022/02/02 06:09:32;;;;;;;11.20;4.03;;;;;;;;;;5032877;28;20447;-60
2022/02/02 06:11:58;;;;;;;10.82;3.20;;;;;;;;;;5031673;28;20033;-60
2022/02/02 06:14:26;;;;;;;14.93;2.90;;;;;;;;;;5034840;28;20032;-60
2022/02/02 06:16:57;;;;;;;7.63;3.00;;;;;;;;;;5030534;28;20021;-60
2022/02/02 06:19:25;;;;;;;12.02;3.08;;;;;;;;;;5029232;28;20030;-60
2022/02/02 06:21:59;;;;;;;11.30;3.20;;;;;;;;;;5036086;28;20480;-60
2022/02/02 06:24:31;;;;;;;15.10;3.78;;;;;;;;;;5027852;28;20025;-60
2022/02/02 06:27:05;;;;;;;12.70;3.38;;;;;;;;;;5031321;28;20067;-60
2022/02/02 06:29:35;;;;;;;18.27;4.55;;;;;;;;;;5031872;28;20029;-60
2022/02/02 06:32:01;;;;;;;8.63;2.80;;;;;;;;;;5036254;28;20075;-60
2022/02/02 06:34:28;;;;;;;14.30;3.55;;;;;;;;;;5036108;28;20029;-60
2022/02/02 06:37:01;;;;;;;8.50;3.58;;;;;;;;;;5031644;28;20025;-60
2022/02/02 06:39:27;;;;;;;16.23;3.40;;;;;;;;;;5036841;28;20028;-60
2022/02/02 06:41:56;;;;;;;10.98;3.17;;;;;;;;;;5028443;28;20075;-60
2022/02/02 06:44:24;;;;;;;16.17;3.00;;;;;;;;;;5028838;28;20433;-60
2022/02/02 06:46:51;;;;;;;11.82;3.47;;;;;;;;;;5027433;28;20025;-61
2022/02/02 06:49:18;;;;;;;13.77;3.67;;;;;;;;;;5026896;28;20036;-60
2022/02/02 06:51:59;;;;;;;8.18;3.28;;;;;;;;;;5033182;28;20471;-61
2022/02/02 06:54:50;;;;;;;9.07;2.90;;;;;;;;;;5030791;28;20257;-61
2022/02/02 06:57:26;;;;;;;7.78;3.47;;;;;;;;;;5028139;28;20060;-61
2022/02/02 07:02:42;;;;;;;13.40;3.50;;;;;;;;;;5035838;28;20087;-59
2022/02/02 07:08:02;;;;;;;10.27;3.25;;;;;;;;;;5036836;28;20056;-61
2022/02/02 07:23:49;;;;;;;14.13;3.90;;;;;;;;;;5054457;28;20033;-61
2022/02/02 07:28:59;;;;;;;;;;;;;;;;;;;;;
2022/02/02 07:31:33;;;;;;;14.75;5.20;;;;;;;;;;5033004;28;20037;-61
2022/02/02 07:34:12;;;;;;;11.18;3.55;;;;;;;;;;5036389;28;20518;-61
2022/02/02 07:36:43;;;;;;;13.60;4.13;;;;;;;;;;5030898;28;20033;-61
2022/02/02 07:39:12;;;;;;;14.63;3.70;;;;;;;;;;5023581;28;20110;-61
2022/02/02 07:41:43;;;;;;;14.70;3.70;;;;;;;;;;5028147;28;20471;-61
2022/02/02 07:46:37;;;;;;;9.98;4.10;;;;;;;;;;5025231;28;20167;-61
2022/02/02 07:49:06;;;;;;;15.68;4.05;;;;;;;;;;5026893;28;20423;-61
2022/02/02 07:51:36;;;;;;;10.95;4.28;;;;;;;;;;5030126;28;20030;-61
2022/02/02 07:54:04;;;;;;;9.68;3.65;;;;;;;;;;5031844;28;20041;-61
2022/02/02 07:56:39;;;;;;;15.32;3.63;;;;;;;;;;5026819;28;20465;-61
2022/02/02 07:59:34;;;;;;;16.33;4.10;;;;;;;;;;5031757;28;20029;-61
2022/02/02 08:02:02;;;;;;;14.43;4.72;;;;;;;;;;5029501;28;20036;-61
2022/02/02 08:04:28;;;;;;;12.30;4.55;;;;;;;;;;5029473;28;20132;-61
2022/02/02 08:06:55;;;;;;;13.55;4.63;;;;;;;;;;5030644;28;20067;-61
2022/02/02 08:09:45;;;;;;;13.85;4.88;;;;;;;;;;5034137;28;20036;-61
2022/02/02 08:12:17;;;;;;;12.68;5.20;;;;;;;;;;5030899;28;20439;-61
2022/02/02 08:14:44;;;;;;;18.80;5.75;;;;;;;;;;5031957;28;20021;-61
2022/02/02 08:17:10;;;;;;;19.38;6.03;;;;;;;;;;5028320;28;20038;-61
2022/02/02 08:19:37;;;;;;;14.55;5.72;;;;;;;;;;5030557;28;20025;-61
2022/02/02 08:22:03;;;;;;;19.33;5.55;;;;;;;;;;5035519;28;20072;-61
2022/02/02 08:24:28;;;;;;;21.77;6.95;;;;;;;;;;5028687;28;20052;-61
2022/02/02 08:26:55;;;;;;;13.90;4.90;;;;;;;;;;5025772;28;20021;-61
2022/02/02 08:29:23;;;;;;;16.58;5.28;;;;;;;;;;5030948;28;20124;-60
2022/02/02 08:31:48;;;;;;;17.48;4.97;;;;;;;;;;5027926;28;20404;-61
2022/02/02 08:34:14;;;;;;;11.52;4.43;;;;;;;;;;5043306;28;20069;-61
2022/02/02 08:36:41;;;;;;;16.35;4.97;;;;;;;;;;5029616;28;20031;-61
2022/02/02 08:41:44;;;;;;;16.23;5.47;;;;;;;;;;5028588;28;20044;-60
2022/02/02 08:44:19;;;;;;;18.52;5.45;;;;;;;;;;5031472;28;20029;-61
2022/02/02 08:46:57;;;;;;;12.60;4.43;;;;;;;;;;5027290;28;20030;-61
2022/02/02 08:49:23;;;;;;;16.17;4.43;;;;;;;;;;5030275;28;20075;-61
2022/02/02 08:51:48;;;;;;;16.35;5.65;;;;;;;;;;5025581;28;20026;-61
2022/02/02 08:54:55;;;;;;;14.60;5.20;;;;;;;;;;5032423;28;20292;-61
2022/02/02 08:59:58;;;;;;;15.80;5.85;;;;;;;;;;5029584;28;20044;-61
2022/02/02 09:02:28;;;;;;;17.25;5.30;;;;;;;;;;5028242;28;20498;-61
2022/02/02 09:07:38;;;;;;;15.65;4.97;;;;;;;;;;5023875;28;20522;-61
2022/02/02 09:36:10;;;;;;;15.38;5.60;;;;;;;;;;5038409;28;20025;-61
2022/02/02 09:38:36;;;;;;;18.58;6.20;;;;;;;;;;5026784;28;20038;-61
2022/02/02 09:43:36;;;;;;;17.48;5.93;;;;;;;;;;5030116;28;20025;-62
2022/02/02 09:46:07;;;;;;;22.73;6.82;;;;;;;;;;5030655;28;20030;-61
2022/02/02 09:48:43;;;;;;;21.35;6.05;;;;;;;;;;5029182;28;20104;-61
2022/02/02 09:51:13;;;;;;;20.27;5.60;;;;;;;;;;5028383;28;20038;-61
2022/02/02 09:54:02;;;;;;;16.30;4.90;;;;;;;;;;5029230;28;20504;-61
2022/02/02 09:56:58;;;;;;;21.90;6.57;;;;;;;;;;5028749;28;20401;-60
2022/02/02 10:02:34;;;;;;;17.50;6.18;;;;;;;;;;5025053;28;20025;-62
2022/02/02 10:15:34;;;;;;;22.45;6.13;;;;;;;;;;5030405;28;20508;-61
2022/02/02 10:18:08;;;;;;;18.73;5.95;;;;;;;;;;5031679;28;20480;-61
2022/02/02 10:20:36;;;;;;;26.88;6.63;;;;;;;;;;5036748;28;20025;-61
2022/02/02 10:23:03;;;;;;;18.55;5.88;;;;;;;;;;5034622;28;20451;-62
2022/02/02 10:25:38;;;;;;;22.10;6.72;;;;;;;;;;5037590;28;20111;-61
2022/02/02 10:28:21;;;;;;;19.15;5.88;;;;;;;;;;5033207;28;20025;-61
2022/02/02 10:30:55;;;;;;;25.23;6.30;;;;;;;;;;5029082;28;20033;-61
2022/02/02 10:33:28;;;;;;;18.60;6.38;;;;;;;;;;5034780;28;20025;-61
2022/02/02 10:38:59;;;;;;;22.13;7.05;;;;;;;;;;5025530;28;20025;-61
2022/02/02 10:41:33;;;;;;;24.67;6.95;;;;;;;;;;5029723;28;20124;-62
2022/02/02 10:44:02;;;;;;;23.77;5.47;;;;;;;;;;5032825;28;20059;-61
2022/02/02 10:49:18;;;;;;;17.52;4.95;;;;;;;;;;5032151;28;20025;-61
2022/02/02 10:51:53;;;;;;;21.00;5.80;;;;;;;;;;5032842;28;20443;-61
2022/02/02 10:54:34;;;;;;;25.50;6.25;;;;;;;;;;5033809;28;20491;-61
2022/02/02 10:57:14;;;;;;;38.08;10.02;;;;;;;;;;5031336;28;20029;-61
2022/02/02 11:07:16;;;;;;;17.30;7.07;;;;;;;;;;5032088;28;20032;-61
2022/02/02 11:09:45;;;;;;;21.90;7.50;;;;;;;;;;5033971;28;20056;-61
2022/02/02 11:12:13;;;;;;;22.73;9.18;;;;;;;;;;5030035;28;20021;-61
2022/02/02 11:14:54;;;;;;;24.23;7.88;;;;;;;;;;5035450;28;20110;-61
2022/02/02 11:17:25;;;;;;;19.58;6.28;;;;;;;;;;5028314;28;20366;-61
2022/02/02 11:19:56;;;;;;;24.15;7.25;;;;;;;;;;5030758;28;20418;-61
2022/02/02 11:22:22;;;;;;;19.73;7.20;;;;;;;;;;5031803;28;20388;-61
2022/02/02 11:24:48;;;;;;;20.50;6.80;;;;;;;;;;5031166;28;20112;-62
2022/02/02 11:27:33;;;;;;;18.10;6.07;;;;;;;;;;5036018;28;20224;-62
2022/02/02 11:30:00;;;;;;;21.70;7.43;;;;;;;;;;5030946;28;20431;-61
2022/02/02 11:32:42;;;;;;;22.45;6.05;;;;;;;;;;5034377;28;20483;-62
2022/02/02 11:35:30;;;;;;;21.80;5.38;;;;;;;;;;5027068;28;20074;-62
2022/02/02 11:37:57;;;;;;;14.68;5.15;;;;;;;;;;5022791;28;20416;-63
2022/02/02 11:40:23;;;;;;;18.88;4.95;;;;;;;;;;5032381;28;20033;-61
2022/02/02 11:45:34;;;;;;;19.50;6.00;;;;;;;;;;5033046;28;20084;-61
2022/02/02 11:48:06;;;;;;;21.08;5.15;;;;;;;;;;5031325;28;20037;-61
2022/02/02 11:50:55;;;;;;;27.00;5.65;;;;;;;;;;5032909;28;20025;-61
2022/02/02 11:53:48;;;;;;;18.83;5.53;;;;;;;;;;5032834;28;20475;-61
2022/02/02 11:56:14;;;;;;;18.73;5.18;;;;;;;;;;5027665;28;20037;-61
2022/02/02 11:58:40;;;;;;;15.82;5.22;;;;;;;;;;5029458;28;20025;-61
2022/02/02 12:09:26;;;;;;;25.63;5.93;;;;;;;;;;5032019;28;20021;-61
2022/02/02 12:57:22;;;;;;;18.52;4.10;;;;;;;;;;5028339;28;20100;-61
2022/02/02 13:02:16;;;;;;;15.38;4.15;;;;;;;;;;5033427;28;20033;-61
2022/02/02 13:04:44;;;;;;;18.65;4.47;;;;;;;;;;5033471;28;20106;-60
2022/02/02 13:07:16;;;;;;;18.30;4.72;;;;;;;;;;5030251;28;20025;-61
2022/02/02 13:09:48;;;;;;;13.27;4.55;;;;;;;;;;5030505;28;20571;-61
2022/02/02 13:21:45;;;;;;;21.63;4.93;;;;;;;;;;5028701;28;20033;-61
2022/02/02 13:24:19;;;;;;;12.60;5.15;;;;;;;;;;5028894;28;20043;-61
2022/02/02 13:26:59;;;;;;;13.15;4.40;;;;;;;;;;5028415;28;20224;-61
2022/02/02 13:32:08;;;;;;;11.23;4.35;;;;;;;;;;5027399;28;20029;-61
2022/02/02 13:46:09;;;;;;;19.77;4.97;;;;;;;;;;5029240;28;20033;-61
2022/02/02 13:51:30;;;;;;;17.67;5.47;;;;;;;;;;5038241;28;20115;-61
2022/02/02 13:54:30;;;;;;;15.20;5.10;;;;;;;;;;5035242;28;20518;-61
2022/02/02 14:31:26;;;;;;;13.15;5.40;;;;;;;;;;5031697;28;20511;-61
2022/02/02 14:33:53;;;;;;;14.55;4.95;;;;;;;;;;5029168;28;20345;-61
2022/02/02 14:36:23;;;;;;;11.00;4.30;;;;;;;;;;5027923;28;20450;-60
2022/02/02 14:39:04;;;;;;;12.70;5.28;;;;;;;;;;5026755;28;20017;-61
2022/02/02 14:41:39;;;;;;;18.42;6.20;;;;;;;;;;5032332;28;20113;-61
2022/02/02 14:44:13;;;;;;;17.48;6.93;;;;;;;;;;5034050;28;20029;-61
2022/02/02 14:49:26;;;;;;;16.48;7.45;;;;;;;;;;5034106;28;20053;-61
2022/02/02 14:54:52;;;;;;;19.17;7.60;;;;;;;;;;5030592;28;20052;-61
2022/02/02 15:32:07;;;;;;;25.83;8.57;;;;;;;;;;5027704;28;20032;-60
2022/02/02 15:34:44;;;;;;;28.45;11.52;;;;;;;;;;5033777;28;20037;-60
2022/02/02 15:40:16;;;;;;;29.15;9.00;;;;;;;;;;5026849;28;20070;-60
2022/02/02 15:58:54;;;;;;;19.95;7.60;;;;;;;;;;5032676;28;20172;-61
2022/02/02 16:04:12;;;;;;;19.05;6.82;;;;;;;;;;5033056;28;20037;-61
2022/02/02 16:06:38;;;;;;;16.33;6.15;;;;;;;;;;5026570;28;20425;-61
2022/02/02 16:09:19;;;;;;;18.08;6.57;;;;;;;;;;5033668;28;20063;-61
2022/02/02 16:11:52;;;;;;;20.75;6.88;;;;;;;;;;5031597;28;20506;-61
2022/02/02 16:14:24;;;;;;;15.13;5.65;;;;;;;;;;5030642;28;20476;-61
2022/02/02 16:19:30;;;;;;;11.40;5.43;;;;;;;;;;5033634;28;20558;-61
2022/02/02 16:25:03;;;;;;;11.02;5.30;;;;;;;;;;5034491;28;20491;-59
2022/02/02 16:38:12;;;;;;;10.18;3.97;;;;;;;;;;5026642;28;20096;-60
2022/02/02 16:40:41;;;;;;;7.03;4.10;;;;;;;;;;5029036;28;20520;-60
2022/02/02 16:43:13;;;;;;;6.63;3.83;;;;;;;;;;5029194;28;20045;-60
2022/02/02 16:45:52;;;;;;;8.57;4.68;;;;;;;;;;5030143;28;20025;-59
2022/02/02 16:48:18;;;;;;;8.38;5.05;;;;;;;;;;5031302;28;20538;-59
2022/02/02 16:50:49;;;;;;;11.68;4.70;;;;;;;;;;5031172;28;20448;-61
2022/02/02 17:33:08;;;;;;;10.82;6.05;;;;;;;;;;5029253;28;20025;-61
2022/02/02 17:35:47;;;;;;;12.57;5.40;;;;;;;;;;5030613;28;20087;-61
2022/02/02 17:38:24;;;;;;;9.02;5.35;;;;;;;;;;5030396;28;20029;-61
2022/02/02 17:41:08;;;;;;;10.40;6.28;;;;;;;;;;5029044;28;20060;-61
2022/02/02 17:44:06;;;;;;;8.50;4.93;;;;;;;;;;5031396;28;20073;-61
2022/02/02 18:19:07;;;;;;;16.05;7.20;;;;;;;;;;5032091;28;20506;-61
2022/02/02 18:21:34;;;;;;;11.30;5.95;;;;;;;;;;5036397;28;20407;-61
2022/02/02 18:34:42;;;;;;;10.60;5.47;;;;;;;;;;5033714;28;20469;-60
2022/02/02 18:45:29;;;;;;;;;;;;;;;;;;;;;
2022/02/02 18:51:05;;;;;;;8.98;6.00;;;;;;;;;;5040822;28;20048;-60
2022/02/02 18:58:41;;;;;;;6.90;3.60;;;;;;;;;;5033114;28;20060;-60
2022/02/02 19:01:23;;;;;;;6.40;4.13;;;;;;;;;;5033582;28;20387;-60
2022/02/02 19:56:46;;;;;;;24.77;11.10;;;;;;;;;;5034950;28;20070;-61
2022/02/02 20:05:35;;;;;;;14.20;7.55;;;;;;;;;;5031531;28;20036;-60
2022/02/02 20:10:28;;;;;;;13.35;7.35;;;;;;;;;;5031830;28;20033;-60
2022/02/02 20:12:52;;;;;;;13.60;6.32;;;;;;;;;;5034055;28;20040;-61
2022/02/02 20:15:17;;;;;;;8.98;5.47;;;;;;;;;;5028552;28;20029;-60
2022/02/02 20:17:44;;;;;;;11.38;6.18;;;;;;;;;;5031500;28;20495;-61
2022/02/02 20:20:16;;;;;;;9.45;5.18;;;;;;;;;;5028608;28;20033;-61
2022/02/02 20:22:43;;;;;;;9.43;5.32;;;;;;;;;;5035467;28;20052;-62
2022/02/02 20:25:11;;;;;;;16.13;7.50;;;;;;;;;;5033743;28;20170;-61
2022/02/02 20:27:37;;;;;;;10.18;4.00;;;;;;;;;;5026972;28;20025;-58
2022/02/02 20:30:06;;;;;;;10.70;4.50;;;;;;;;;;5028008;28;20033;-59
2022/02/02 20:32:31;;;;;;;11.02;4.82;;;;;;;;;;5028811;28;20044;-58
2022/02/02 20:34:57;;;;;;;15.80;5.25;;;;;;;;;;5026823;28;20496;-58
2022/02/02 20:37:23;;;;;;;9.90;4.13;;;;;;;;;;5026931;28;20421;-58
2022/02/02 20:39:59;;;;;;;6.13;3.83;;;;;;;;;;5029434;28;20063;-57
2022/02/02 20:42:33;;;;;;;8.00;4.18;;;;;;;;;;5027450;28;20029;-58
2022/02/02 21:14:09;;;;;;;7.38;4.40;;;;;;;;;;5033181;28;20150;-61
2022/02/02 21:16:38;;;;;;;7.35;4.28;;;;;;;;;;5030608;28;20456;-61
2022/02/02 21:19:08;;;;;;;6.93;4.20;;;;;;;;;;5023899;28;20059;-61
2022/02/02 21:21:50;;;;;;;;;;;;;;;;;;5026670;28;20025;-60
2022/02/02 21:29:36;;;;;;;29.33;9.95;;;;;;;;;;5026939;28;20021;-61
2022/02/02 21:32:02;;;;;;;26.15;10.23;;;;;;;;;;5027454;28;20081;-61
2022/02/02 21:34:27;;;;;;;22.67;9.52;;;;;;;;;;5028510;28;20025;-61
2022/02/02 21:36:54;;;;;;;35.58;15.15;;;;;;;;;;5024324;28;20381;-61
2022/02/02 21:39:23;;;;;;;21.35;10.65;;;;;;;;;;5031483;28;20395;-61
2022/02/02 21:41:52;;;;;;;17.02;9.48;;;;;;;;;;5032100;28;20039;-61
2022/02/02 21:44:18;;;;;;;16.67;8.75;;;;;;;;;;5029916;28;20412;-61
2022/02/02 21:46:44;;;;;;;17.20;9.60;;;;;;;;;;5030197;28;20036;-60
2022/02/02 21:49:16;;;;;;;18.42;9.98;;;;;;;;;;5034549;28;20024;-60
2022/02/02 21:51:53;;;;;;;20.92;9.93;;;;;;;;;;5029724;28;20468;-60
2022/02/02 21:54:19;;;;;;;14.40;7.25;;;;;;;;;;5028896;28;20060;-60
2022/02/02 21:56:44;;;;;;;10.32;5.63;;;;;;;;;;5025902;28;20028;-60
2022/02/02 21:59:10;;;;;;;10.63;6.10;;;;;;;;;;5029050;28;20029;-60
2022/02/02 22:01:36;;;;;;;7.80;5.22;;;;;;;;;;5027282;28;20037;-59
2022/02/02 22:04:01;;;;;;;7.95;4.93;;;;;;;;;;5029310;28;20036;-60
2022/02/02 22:06:27;;;;;;;6.00;4.30;;;;;;;;;;5026722;28;20033;-59
2022/02/02 22:08:53;;;;;;;5.45;3.92;;;;;;;;;;5036249;28;20383;-60
2022/02/02 22:11:19;;;;;;;9.27;5.90;;;;;;;;;;5038881;28;20127;-60
2022/02/02 22:13:54;;;;;;;11.80;7.35;;;;;;;;;;5028859;28;20129;-60
2022/02/02 22:16:22;;;;;;;10.65;5.63;;;;;;;;;;5030796;28;20044;-60
2022/02/02 22:18:48;;;;;;;11.80;6.28;;;;;;;;;;5030706;28;20041;-59
2022/02/02 22:21:14;;;;;;;13.20;7.40;;;;;;;;;;5036882;28;20070;-60
2022/02/02 22:23:41;;;;;;;11.15;6.53;;;;;;;;;;5035919;28;20033;-61
2022/02/02 22:26:07;;;;;;;12.13;6.53;;;;;;;;;;5025219;28;20317;-60
2022/02/02 22:28:33;;;;;;;12.13;7.03;;;;;;;;;;5027587;28;20244;-60
2022/02/02 22:30:58;;;;;;;12.77;7.20;;;;;;;;;;5026491;28;20416;-60
2022/02/02 22:33:24;;;;;;;11.25;6.18;;;;;;;;;;5029836;28;20442;-60
2022/02/02 22:35:50;;;;;;;7.63;5.78;;;;;;;;;;5033838;28;20550;-61
2022/02/02 22:38:15;;;;;;;8.85;6.00;;;;;;;;;;5032329;28;20151;-60
2022/02/02 22:40:42;;;;;;;6.43;4.93;;;;;;;;;;5033976;28;20117;-60
2022/02/02 22:43:08;;;;;;;5.95;4.97;;;;;;;;;;5032386;28;20029;-60
2022/02/02 22:45:34;;;;;;;7.68;4.90;;;;;;;;;;5028154;28;20052;-60
2022/02/02 22:48:00;;;;;;;8.00;4.88;;;;;;;;;;5029640;28;20043;-60
2022/02/02 22:50:25;;;;;;;8.55;5.20;;;;;;;;;;5035060;28;20477;-60
2022/02/02 22:52:55;;;;;;;10.25;5.32;;;;;;;;;;5038662;28;20024;-60
2022/02/02 22:55:21;;;;;;;6.57;4.00;;;;;;;;;;5033215;28;20124;-60
2022/02/02 22:57:49;;;;;;;12.48;6.10;;;;;;;;;;5036132;28;20124;-60
2022/02/02 23:00:18;;;;;;;10.43;4.85;;;;;;;;;;5036721;28;20032;-61
2022/02/02 23:02:59;;;;;;;8.30;4.43;;;;;;;;;;5036092;28;20083;-61
2022/02/02 23:05:46;;;;;;;10.70;4.18;;;;;;;;;;5028377;28;20304;-60
2022/02/02 23:08:14;;;;;;;8.57;3.97;;;;;;;;;;5032433;28;20120;-61
2022/02/02 23:10:41;;;;;;;7.70;4.85;;;;;;;;;;5031384;28;20022;-61
2022/02/02 23:13:08;;;;;;;7.57;4.40;;;;;;;;;;5031818;28;20029;-61
2022/02/02 23:15:53;;;;;;;5.10;3.67;;;;;;;;;;5032942;28;20753;-60
2022/02/02 23:18:22;;;;;;;5.32;3.10;;;;;;;;;;5033413;28;20090;-61
2022/02/02 23:20:58;;;;;;;4.43;2.80;;;;;;;;;;5025226;28;20496;-60
2022/02/02 23:23:25;;;;;;;9.40;5.47;;;;;;;;;;5037148;28;20045;-60
2022/02/02 23:25:53;;;;;;;7.28;5.15;;;;;;;;;;5036038;28;20025;-60
2022/02/02 23:28:23;;;;;;;8.55;5.28;;;;;;;;;;5030300;28;20100;-60
2022/02/02 23:30:49;;;;;;;7.15;4.30;;;;;;;;;;5029770;28;20033;-60
2022/02/02 23:33:15;;;;;;;8.15;3.88;;;;;;;;;;5036124;28;20708;-60
2022/02/02 23:35:41;;;;;;;6.88;4.88;;;;;;;;;;5029559;28;20075;-60
2022/02/02 23:38:07;;;;;;;6.07;4.10;;;;;;;;;;5029738;28;20074;-60
2022/02/02 23:40:54;;;;;;;6.50;3.88;;;;;;;;;;5030783;28;20448;-60
2022/02/02 23:43:20;;;;;;;8.40;5.00;;;;;;;;;;5033807;28;20028;-60
2022/02/02 23:45:52;;;;;;;7.93;4.72;;;;;;;;;;5033736;28;20571;-60
2022/02/02 23:48:21;;;;;;;6.90;4.80;;;;;;;;;;5029452;28;20021;-60
2022/02/02 23:50:48;;;;;;;7.43;5.22;;;;;;;;;;5034389;28;20028;-60
2022/02/02 23:53:14;;;;;;;6.82;4.78;;;;;;;;;;5027144;28;20057;-60
2022/02/02 23:55:43;;;;;;;6.85;4.60;;;;;;;;;;5035889;28;20060;-60
2022/02/02 23:58:22;;;;;;;8.18;5.45;;;;;;;;;;5030704;28;20099;-60
